| time (UTC) | temp F | wind direction | speed knots | gust knots | rain 1hr in | rain 24hr in | rain mn in | humidity % | barometer mb |
| 20260507065623 | 56 | 346 | 2.6 | 7.0 | 0.03 | 0.19 | 0.15 | 85 | 1010.1 |
| 20260507064125 | 57 | 325 | 0.9 | 2.6 | 0.07 | 0.19 | 0.15 | 87 | 1010.3 |
| 20260507062622 | 57 | 292 | 0.9 | 1.7 | 0.12 | 0.18 | 0.14 | 88 | 1010.2 |
| 20260507061132 | 58 | 35 | 0.9 | 1.7 | 0.13 | 0.17 | 0.13 | 87 | 1010.2 |
| 20260507055623 | 58 | 9 | 0.9 | 1.7 | 0.12 | 0.16 | 0.12 | 87 | 1010.4 |
| 20260507054123 | 59 | 306 | 0.9 | 1.7 | 0.08 | 0.12 | 0.08 | 84 | 1010.7 |
| 20260507052623 | 61 | 51 | 1.7 | 2.6 | 0.02 | 0.06 | 0.02 | 78 | 1010.7 |
| 20260507051124 | 62 | 305 | 1.7 | 2.6 | 0.00 | 0.04 | 0.00 | 76 | 1010.0 |
| 20260507045622 | 62 | 339 | 1.7 | 2.6 | 0.00 | 0.04 | 0.00 | 75 | 1010.2 |
| 20260507044123 | 63 | 9 | 1.7 | 2.6 | 0.00 | 0.04 | 0.00 | 74 | 1009.7 |
| 20260507042623 | 63 | 354 | 0.9 | 2.6 | 0.00 | 0.04 | 0.00 | 77 | 1009.5 |
| 20260507041126 | 64 | 0 | 0.9 | 1.7 | 0.00 | 0.04 | 0.00 | 76 | 1009.4 |
| 20260507035624 | 65 | 333 | 0.9 | 2.6 | 0.00 | 0.04 | 0.04 | 76 | 1009.7 |
| 20260507034124 | 66 | 303 | 0.9 | 2.6 | 0.00 | 0.04 | 0.04 | 76 | 1009.6 |
| 20260507032623 | 66 | 112 | 0.0 | 0.9 | 0.00 | 0.04 | 0.04 | 79 | 1009.2 |
| 20260507031123 | 66 | 232 | 0.0 | 0.9 | 0.00 | 0.04 | 0.04 | 81 | 1009.1 |
| 20260507025622 | 66 | 232 | 0.9 | 0.9 | 0.00 | 0.04 | 0.04 | 81 | 1009.0 |
| 20260507024123 | 66 | 232 | 0.0 | 0.0 | 0.00 | 0.04 | 0.04 | 82 | 1008.7 |
| 20260507022625 | 66 | 232 | 0.9 | 1.7 | 0.00 | 0.04 | 0.04 | 81 | 1008.9 |
| 20260507014124 | 66 | 232 | 0.9 | 2.6 | 0.00 | 0.04 | 0.04 | 81 | 1009.1 |
| 20260507012623 | 66 | 232 | 0.0 | 0.0 | 0.00 | 0.04 | 0.04 | 81 | 1009.0 |
| 20260507011122 | 66 | 232 | 0.9 | 1.7 | 0.00 | 0.04 | 0.04 | 80 | 1008.9 |
| 20260507005622 | 66 | 211 | 0.9 | 0.9 | 0.00 | 0.04 | 0.04 | 80 | 1008.9 |
| 20260507004123 | 66 | 210 | 0.9 | 1.7 | 0.00 | 0.04 | 0.04 | 80 | 1008.6 |
| 20260507002623 | 67 | 210 | 0.9 | 2.6 | 0.00 | 0.04 | 0.04 | 80 | 1008.7 |
| 20260507001124 | 67 | 211 | 1.7 | 2.6 | 0.00 | 0.04 | 0.04 | 79 | 1008.8 |
| 20260506235624 | 67 | 209 | 0.9 | 2.6 | 0.00 | 0.04 | 0.04 | 79 | 1008.4 |
| 20260506234123 | 68 | 213 | 2.6 | 4.3 | 0.00 | 0.04 | 0.04 | 78 | 1008.3 |
| 20260506232622 | 69 | 215 | 0.9 | 1.7 | 0.00 | 0.04 | 0.04 | 77 | 1008.1 |
| 20260506231125 | 69 | 247 | 0.0 | 0.0 | 0.00 | 0.04 | 0.04 | 77 | 1007.9 |
| 20260506225623 | 69 | 220 | 1.7 | 2.6 | 0.00 | 0.04 | 0.04 | 76 | 1008.2 |
| 20260506224123 | 70 | 228 | 1.7 | 2.6 | 0.00 | 0.04 | 0.04 | 74 | 1008.3 |
| 20260506222625 | 71 | 225 | 1.7 | 4.3 | 0.00 | 0.04 | 0.04 | 73 | 1008.2 |
| 20260506221123 | 71 | 234 | 1.7 | 5.2 | 0.00 | 0.04 | 0.04 | 74 | 1008.1 |
| 20260506215623 | 71 | 226 | 2.6 | 2.6 | 0.00 | 0.04 | 0.04 | 74 | 1008.0 |
| 20260506214123 | 71 | 202 | 0.9 | 4.3 | 0.00 | 0.04 | 0.04 | 72 | 1008.0 |
| 20260506212622 | 71 | 224 | 1.7 | 4.3 | 0.00 | 0.04 | 0.04 | 73 | 1007.9 |
| 20260506211124 | 71 | 163 | 1.7 | 4.3 | 0.00 | 0.04 | 0.04 | 74 | 1007.9 |
| 20260506205628 | 71 | 224 | 2.6 | 4.3 | 0.00 | 0.04 | 0.04 | 72 | 1007.8 |
| 20260506204124 | 72 | 222 | 1.7 | 2.6 | 0.00 | 0.04 | 0.04 | 71 | 1007.8 |
| 20260506202623 | 72 | 248 | 2.6 | 5.2 | 0.00 | 0.04 | 0.04 | 70 | 1007.6 |
| 20260506201125 | 71 | 213 | 2.6 | 11.3 | 0.00 | 0.04 | 0.04 | 72 | 1007.7 |
| 20260506195624 | 72 | 271 | 1.7 | 2.6 | 0.00 | 0.04 | 0.04 | 71 | 1007.8 |
| 20260506194125 | 71 | 270 | 2.6 | 5.2 | 0.00 | 0.04 | 0.04 | 74 | 1007.8 |
| 20260506192625 | 70 | 216 | 2.6 | 7.8 | 0.00 | 0.04 | 0.04 | 75 | 1008.1 |
| 20260506191124 | 69 | 207 | 1.7 | 2.6 | 0.00 | 0.04 | 0.04 | 76 | 1008.2 |
| 20260506185623 | 67 | 212 | 4.3 | 5.2 | 0.00 | 0.04 | 0.04 | 76 | 1008.4 |
| 20260506184124 | 67 | 220 | 6.1 | 6.1 | 0.00 | 0.04 | 0.04 | 77 | 1008.4 |
| 20260506182624 | 67 | 210 | 2.6 | 4.3 | 0.00 | 0.04 | 0.04 | 77 | 1008.7 |
| 20260506181123 | 66 | 244 | 4.3 | 7.8 | 0.00 | 0.04 | 0.04 | 78 | 1008.7 |
| 20260506175623 | 66 | 164 | 2.6 | 2.6 | 0.00 | 0.04 | 0.04 | 80 | 1008.6 |
| 20260506174124 | 66 | 178 | 4.3 | 10.4 | 0.00 | 0.04 | 0.04 | 81 | 1008.9 |
| 20260506172624 | 65 | 209 | 4.3 | 7.8 | 0.00 | 0.04 | 0.04 | 81 | 1008.7 |
| 20260506171124 | 65 | 218 | 1.7 | 2.6 | 0.00 | 0.04 | 0.04 | 81 | 1008.9 |
| 20260506165624 | 64 | 220 | 1.7 | 2.6 | 0.00 | 0.04 | 0.04 | 84 | 1008.9 |
| 20260506164123 | 63 | 219 | 2.6 | 6.1 | 0.01 | 0.04 | 0.04 | 86 | 1008.9 |
| 20260506162627 | 63 | 212 | 0.9 | 4.3 | 0.03 | 0.04 | 0.04 | 85 | 1009.1 |
| 20260506161125 | 64 | 150 | 1.7 | 2.6 | 0.03 | 0.04 | 0.04 | 86 | 1009.4 |
| 20260506155624 | 63 | 205 | 0.9 | 5.2 | 0.04 | 0.04 | 0.04 | 87 | 1009.2 |
| 20260506154123 | 63 | 162 | 1.7 | 5.2 | 0.03 | 0.03 | 0.03 | 85 | 1010.1 |
| 20260506152624 | 63 | 162 | 1.7 | 2.6 | 0.01 | 0.01 | 0.01 | 83 | 1010.5 |
| 20260506151125 | 63 | 221 | 1.7 | 2.6 | 0.01 | 0.01 | 0.01 | 83 | 1010.3 |
| 20260506145622 | 64 | 216 | 1.7 | 2.6 | 0.00 | 0.00 | 0.00 | 81 | 1010.3 |
| 20260506142624 | 66 | 212 | 4.3 | 5.2 | 0.00 | 0.00 | 0.00 | 76 | 1010.3 |
| 20260506141123 | 67 | 215 | 2.6 | 7.0 | 0.00 | 0.00 | 0.00 | 74 | 1010.5 |
| 20260506135622 | 66 | 217 | 4.3 | 6.1 | 0.00 | 0.00 | 0.00 | 74 | 1010.4 |
| 20260506134126 | 67 | 210 | 5.2 | 10.4 | 0.00 | 0.00 | 0.00 | 71 | 1010.3 |
| 20260506132625 | 68 | 215 | 5.2 | 7.0 | 0.00 | 0.00 | 0.00 | 71 | 1009.9 |
| 20260506131124 | 67 | 197 | 2.6 | 10.4 | 0.00 | 0.00 | 0.00 | 71 | 1009.9 |
| 20260506125623 | 67 | 209 | 5.2 | 12.2 | 0.00 | 0.00 | 0.00 | 72 | 1010.0 |
| 20260506122625 | 67 | 223 | 4.3 | 7.8 | 0.00 | 0.00 | 0.00 | 72 | 1010.3 |
| 20260506121123 | 67 | 216 | 2.6 | 5.2 | 0.00 | 0.00 | 0.00 | 72 | 1010.1 |
| 20260506115624 | 67 | 208 | 4.3 | 5.2 | 0.00 | 0.00 | 0.00 | 73 | 1010.0 |
| 20260506114125 | 67 | 191 | 5.2 | 10.4 | 0.00 | 0.00 | 0.00 | 74 | 1010.0 |
| 20260506112624 | 66 | 211 | 2.6 | 8.7 | 0.00 | 0.00 | 0.00 | 74 | 1009.8 |
| 20260506111126 | 66 | 202 | 4.3 | 5.2 | 0.00 | 0.00 | 0.00 | 75 | 1009.7 |
| 20260506105623 | 65 | 167 | 4.3 | 6.1 | 0.00 | 0.00 | 0.00 | 76 | 1009.7 |
| 20260506104124 | 65 | 238 | 1.7 | 4.3 | 0.00 | 0.00 | 0.00 | 76 | 1009.7 |
| 20260506102623 | 66 | 194 | 2.6 | 2.6 | 0.00 | 0.00 | 0.00 | 75 | 1009.6 |
| 20260506101124 | 66 | 111 | 0.9 | 1.7 | 0.00 | 0.00 | 0.00 | 75 | 1009.7 |
| 20260506095624 | 66 | 196 | 1.7 | 5.2 | 0.00 | 0.00 | 0.00 | 76 | 1009.7 |
| 20260506094123 | 66 | 219 | 4.3 | 4.3 | 0.00 | 0.00 | 0.00 | 75 | 1009.6 |
| 20260506092623 | 66 | 198 | 1.7 | 2.6 | 0.00 | 0.00 | 0.00 | 75 | 1009.7 |
| 20260506091124 | 66 | 214 | 2.6 | 5.2 | 0.00 | 0.00 | 0.00 | 75 | 1009.9 |
| 20260506085623 | 65 | 221 | 2.6 | 4.3 | 0.00 | 0.00 | 0.00 | 76 | 1009.8 |
| 20260506084124 | 66 | 215 | 2.6 | 4.3 | 0.00 | 0.00 | 0.00 | 76 | 1009.7 |
| 20260506082623 | 66 | 181 | 1.7 | 2.6 | 0.00 | 0.00 | 0.00 | 75 | 1009.6 |
| 20260506081123 | 66 | 151 | 1.7 | 7.0 | 0.00 | 0.00 | 0.00 | 74 | 1009.7 |
| 20260506072625 | 68 | 195 | 1.7 | 2.6 | 0.00 | 0.00 | 0.00 | 71 | 1010.0 |
| 20260506071124 | 68 | 207 | 4.3 | 7.8 | 0.00 | 0.00 | 0.00 | 71 | 1010.0 |